Time;durP1;ratioP1;P1;durP2;ratioP2;P2;SDS_P1;SDS_P2;PMS_P1;PMS_P2;Temp;Humidity;BMP_temperature;BMP_pressure;BME280_temperature;BME280_humidity;BME280_pressure;Samples;Min_cycle;Max_cycle;Signal;HPM_P1;HPM_P2
2022/08/18 00:01:44;;;;;;;7.35;3.80;;;27.70;99.90;;;;;;4195035;28;20048;-70
2022/08/18 00:03:51;;;;;;;6.43;3.75;;;27.70;99.90;;;;;;4160119;28;20056;-69
2022/08/18 00:06:05;;;;;;;7.95;3.85;;;27.70;99.90;;;;;;4195517;28;20056;-70
2022/08/18 00:08:10;;;;;;;7.80;4.13;;;27.80;99.90;;;;;;4194090;28;20151;-70
2022/08/18 00:10:19;;;;;;;94.03;14.52;;;27.70;99.90;;;;;;4194913;28;20048;-71
2022/08/18 00:12:27;;;;;;;162.90;20.35;;;27.80;99.90;;;;;;4186759;28;20120;-70
2022/08/18 00:14:32;;;;;;;78.72;10.20;;;27.80;99.90;;;;;;4211502;28;20040;-70
2022/08/18 00:16:38;;;;;;;30.05;6.40;;;27.80;99.90;;;;;;4210053;28;20072;-68
2022/08/18 00:18:43;;;;;;;40.00;7.05;;;27.80;99.90;;;;;;4211623;28;20047;-70
2022/08/18 00:20:48;;;;;;;23.75;5.90;;;27.90;99.90;;;;;;4211531;28;20072;-70
2022/08/18 00:22:58;;;;;;;12.90;5.10;;;27.90;99.90;;;;;;4212121;28;20059;-69
2022/08/18 00:25:02;;;;;;;9.88;4.38;;;27.90;99.90;;;;;;4211767;28;20101;-69
2022/08/18 00:27:09;;;;;;;10.05;4.20;;;27.90;99.90;;;;;;4211564;28;20139;-69
2022/08/18 00:29:16;;;;;;;12.88;4.80;;;28.00;99.90;;;;;;4210051;28;20044;-69
2022/08/18 00:31:21;;;;;;;8.30;4.20;;;28.00;99.90;;;;;;4210673;28;20047;-69
2022/08/18 00:33:26;;;;;;;6.57;3.80;;;28.10;99.90;;;;;;4210902;28;20044;-66
2022/08/18 00:35:33;;;;;;;7.70;4.20;;;28.10;99.90;;;;;;4210114;28;20048;-66
2022/08/18 00:37:40;;;;;;;9.75;3.80;;;28.10;99.90;;;;;;4210618;28;20771;-66
2022/08/18 00:39:44;;;;;;;10.00;4.10;;;28.10;99.90;;;;;;4210355;28;20071;-66
2022/08/18 00:41:55;;;;;;;9.48;3.85;;;28.20;99.90;;;;;;4172365;28;20518;-66
2022/08/18 00:43:59;;;;;;;10.45;3.58;;;28.10;99.90;;;;;;4210362;28;20647;-65
2022/08/18 00:46:07;;;;;;;5.38;3.50;;;28.10;99.90;;;;;;4209874;28;20044;-65
2022/08/18 00:48:12;;;;;;;7.38;3.60;;;28.20;99.90;;;;;;4207815;28;20082;-65
2022/08/18 00:50:38;;;;;;;6.13;3.33;;;28.20;99.90;;;;;;4209770;28;20052;-66
2022/08/18 00:52:55;;;;;;;9.38;3.35;;;28.20;99.90;;;;;;4209473;28;20048;-66
2022/08/18 00:55:03;;;;;;;11.15;3.90;;;28.20;99.90;;;;;;4209134;28;20134;-65
2022/08/18 00:57:08;;;;;;;9.07;3.70;;;28.30;99.90;;;;;;4210415;28;20036;-65
2022/08/18 00:59:44;;;;;;;12.82;5.05;;;28.30;99.90;;;;;;4210241;28;20044;-65
2022/08/18 01:01:54;;;;;;;13.20;4.47;;;28.40;99.90;;;;;;4210030;28;20070;-65
2022/08/18 01:04:08;;;;;;;9.63;4.45;;;28.40;99.90;;;;;;4210477;28;20418;-65
2022/08/18 01:06:27;;;;;;;9.18;4.03;;;28.50;99.90;;;;;;4194328;28;20056;-68
2022/08/18 01:08:37;;;;;;;13.27;3.90;;;28.50;99.90;;;;;;4210644;28;20566;-68
2022/08/18 01:10:43;;;;;;;10.35;3.80;;;28.50;99.90;;;;;;4209998;28;20040;-68
2022/08/18 01:12:51;;;;;;;11.57;3.88;;;28.50;99.90;;;;;;4210724;28;20097;-68
2022/08/18 01:15:00;;;;;;;12.02;3.75;;;28.60;99.90;;;;;;4174534;28;20521;-68
2022/08/18 01:21:50;;;;;;;5.55;3.28;;;28.70;99.90;;;;;;4208663;28;20123;-67
2022/08/18 01:23:55;;;;;;;8.00;3.58;;;28.70;99.90;;;;;;4210209;28;20044;-67
2022/08/18 01:25:59;;;;;;;6.47;3.30;;;28.80;99.90;;;;;;4210127;28;20040;-67
2022/08/18 01:28:06;;;;;;;7.32;3.42;;;28.80;99.90;;;;;;4209811;28;20136;-70
2022/08/18 01:30:13;;;;;;;8.63;3.65;;;28.80;99.90;;;;;;4209459;28;20510;-67
2022/08/18 01:32:20;;;;;;;8.70;3.30;;;28.80;99.90;;;;;;4209070;28;20063;-67
2022/08/18 01:34:29;;;;;;;9.70;3.67;;;28.80;99.90;;;;;;4191011;28;20204;-67
2022/08/18 01:36:36;;;;;;;7.55;3.35;;;28.80;99.90;;;;;;4209219;28;20101;-68
2022/08/18 01:38:40;;;;;;;7.47;3.05;;;28.80;99.90;;;;;;4210668;28;20043;-68
2022/08/18 01:40:47;;;;;;;5.43;3.20;;;28.90;99.90;;;;;;4210243;28;20737;-68
2022/08/18 01:43:12;;;;;;;5.78;3.13;;;28.90;99.90;;;;;;4210406;28;20581;-69
2022/08/18 01:45:19;;;;;;;6.18;3.10;;;28.90;99.90;;;;;;4210282;28;20121;-68
2022/08/18 01:47:27;;;;;;;9.23;3.20;;;28.80;99.90;;;;;;4210507;28;20040;-68
2022/08/18 01:49:49;;;;;;;7.60;3.13;;;28.90;99.90;;;;;;4201370;28;20044;-68
2022/08/18 01:51:54;;;;;;;7.68;3.45;;;28.80;99.90;;;;;;4191932;28;20082;-68
2022/08/18 01:54:04;;;;;;;7.43;3.33;;;28.90;99.90;;;;;;4193531;28;20045;-67
2022/08/18 01:56:08;;;;;;;7.03;3.05;;;28.90;99.90;;;;;;4193557;28;20033;-67
2022/08/18 01:58:13;;;;;;;7.22;2.90;;;28.90;99.90;;;;;;4193617;28;20044;-67
2022/08/18 02:00:23;;;;;;;7.95;3.47;;;29.00;99.90;;;;;;4193682;28;20062;-68
2022/08/18 02:02:31;;;;;;;5.88;3.20;;;29.00;99.90;;;;;;4193781;28;20053;-68
2022/08/18 02:04:36;;;;;;;8.35;3.10;;;29.10;99.90;;;;;;4193420;28;20695;-67
2022/08/18 02:06:43;;;;;;;6.72;2.88;;;29.10;99.90;;;;;;4193289;28;20079;-68
2022/08/18 02:08:50;;;;;;;8.23;3.22;;;29.10;99.90;;;;;;4194318;28;20040;-68
2022/08/18 02:10:57;;;;;;;7.53;3.35;;;29.20;99.90;;;;;;4209951;28;20138;-69
2022/08/18 02:13:04;;;;;;;8.75;3.10;;;29.30;99.90;;;;;;4210049;28;20456;-68
2022/08/18 02:15:10;;;;;;;5.38;3.03;;;29.30;99.90;;;;;;4209789;28;20067;-68
2022/08/18 02:17:15;;;;;;;11.95;3.50;;;29.30;99.90;;;;;;4209951;28;20032;-68
2022/08/18 02:19:22;;;;;;;5.70;3.20;;;29.40;99.90;;;;;;4210076;28;20113;-68
2022/08/18 02:21:26;;;;;;;5.30;3.20;;;29.50;99.90;;;;;;4209472;28;20048;-69
2022/08/18 02:23:32;;;;;;;6.80;3.15;;;29.50;99.90;;;;;;4210149;28;20565;-68
2022/08/18 02:25:38;;;;;;;11.02;3.22;;;29.50;99.90;;;;;;4209800;28;20522;-68
2022/08/18 02:27:44;;;;;;;6.05;3.03;;;29.50;99.90;;;;;;4207076;28;20490;-68
2022/08/18 02:29:48;;;;;;;9.77;3.50;;;29.50;99.90;;;;;;4193431;28;20045;-68
2022/08/18 02:31:57;;;;;;;8.70;3.38;;;29.50;99.90;;;;;;4193082;28;20049;-68
2022/08/18 02:34:02;;;;;;;4.68;3.00;;;29.50;99.90;;;;;;4193418;28;20048;-69
2022/08/18 02:36:06;;;;;;;6.80;3.15;;;29.50;99.90;;;;;;4192962;28;20060;-68
2022/08/18 02:38:15;;;;;;;6.25;3.33;;;29.60;99.90;;;;;;4193281;28;20064;-68
2022/08/18 02:40:20;;;;;;;8.77;2.88;;;29.70;99.90;;;;;;4192901;28;20044;-68
2022/08/18 02:42:24;;;;;;;7.32;3.17;;;29.70;99.90;;;;;;4202696;28;20047;-68
2022/08/18 02:44:30;;;;;;;8.38;3.08;;;29.60;99.90;;;;;;4209899;28;20060;-68
2022/08/18 02:46:35;;;;;;;6.93;3.13;;;29.70;99.90;;;;;;4209747;28;20047;-68
2022/08/18 02:48:40;;;;;;;5.07;2.58;;;30.00;99.90;;;;;;4209723;28;20051;-68
2022/08/18 02:50:47;;;;;;;4.55;2.78;;;30.10;99.90;;;;;;4190459;28;20538;-68
2022/08/18 02:52:53;;;;;;;10.18;2.92;;;30.30;99.90;;;;;;4209730;28;20051;-68
2022/08/18 02:55:02;;;;;;;7.10;2.90;;;30.40;99.90;;;;;;4209710;28;20044;-68
2022/08/18 02:57:10;;;;;;;4.60;2.92;;;30.50;99.90;;;;;;4209712;28;20470;-68
2022/08/18 02:59:18;;;;;;;6.43;2.83;;;30.60;99.90;;;;;;4208729;28;20040;-68
2022/08/18 03:01:25;;;;;;;5.47;2.60;;;30.70;99.90;;;;;;4208427;28;20044;-68
2022/08/18 03:03:32;;;;;;;5.05;2.85;;;30.70;99.90;;;;;;4209799;28;20544;-68
2022/08/18 03:05:36;;;;;;;5.03;2.50;;;30.70;99.90;;;;;;4209416;28;20505;-68
2022/08/18 03:07:40;;;;;;;8.48;3.13;;;30.80;99.90;;;;;;4208424;28;20503;-68
2022/08/18 03:09:47;;;;;;;5.68;2.67;;;30.60;99.90;;;;;;4209643;28;20048;-68
2022/08/18 03:11:52;;;;;;;5.55;2.72;;;30.50;99.90;;;;;;4208163;28;20098;-68
2022/08/18 03:13:57;;;;;;;4.95;2.70;;;30.40;99.90;;;;;;4209854;28;20040;-69
2022/08/18 03:16:06;;;;;;;4.65;2.20;;;30.20;99.90;;;;;;4209205;28;20729;-68
2022/08/18 03:18:11;;;;;;;6.22;2.50;;;30.30;99.90;;;;;;4208420;28;20436;-68
2022/08/18 03:20:15;;;;;;;7.43;2.75;;;30.40;99.90;;;;;;4209529;28;20127;-69
2022/08/18 03:22:34;;;;;;;9.00;2.80;;;30.50;99.90;;;;;;4209529;28;20132;-68
2022/08/18 03:24:39;;;;;;;6.95;2.60;;;30.50;99.90;;;;;;4208487;28;20081;-68
2022/08/18 03:26:44;;;;;;;4.07;2.38;;;30.60;99.90;;;;;;4209159;28;20525;-68
2022/08/18 03:28:53;;;;;;;8.40;2.70;;;30.60;99.90;;;;;;4195932;28;20079;-68
2022/08/18 03:30:58;;;;;;;5.55;2.50;;;30.60;99.90;;;;;;4192600;28;20051;-68
2022/08/18 03:33:02;;;;;;;5.50;2.40;;;30.70;99.90;;;;;;4194230;28;20036;-68
2022/08/18 03:35:13;;;;;;;6.15;2.75;;;30.80;99.90;;;;;;4194966;28;20622;-66
2022/08/18 03:37:17;;;;;;;3.92;2.20;;;30.90;99.90;;;;;;4194312;28;20049;-66
2022/08/18 03:39:23;;;;;;;8.98;2.40;;;30.80;99.90;;;;;;4195922;28;20754;-66
2022/08/18 03:41:30;;;;;;;4.47;2.13;;;30.80;99.90;;;;;;4196807;28;20661;-66
2022/08/18 03:43:55;;;;;;;7.00;2.15;;;30.80;99.90;;;;;;4212426;28;20514;-66
2022/08/18 03:46:01;;;;;;;4.53;2.20;;;30.80;99.90;;;;;;4211876;28;20059;-66
2022/08/18 03:48:20;;;;;;;6.13;2.55;;;30.90;99.90;;;;;;4211923;28;20713;-66
2022/08/18 03:50:24;;;;;;;3.42;2.45;;;31.00;99.90;;;;;;4195454;28;20135;-66
2022/08/18 03:52:29;;;;;;;7.65;2.63;;;31.10;99.90;;;;;;4195429;28;20645;-66
2022/08/18 03:54:45;;;;;;;7.03;2.30;;;31.20;99.90;;;;;;4195411;28;20040;-66
2022/08/18 03:56:54;;;;;;;5.43;2.40;;;31.00;99.90;;;;;;4211999;28;20070;-67
2022/08/18 03:59:03;;;;;;;6.93;2.70;;;30.90;99.90;;;;;;4212123;28;20394;-67
2022/08/18 04:01:10;;;;;;;6.22;2.60;;;30.90;99.90;;;;;;4171369;28;20692;-67
2022/08/18 04:03:27;;;;;;;8.45;3.00;;;31.00;99.90;;;;;;4210472;28;20480;-66
2022/08/18 04:05:33;;;;;;;5.85;2.53;;;31.00;99.90;;;;;;4193337;28;20521;-67
2022/08/18 04:07:42;;;;;;;5.93;2.70;;;31.00;99.90;;;;;;4195456;28;20106;-71
2022/08/18 04:09:46;;;;;;;9.07;3.13;;;31.10;99.90;;;;;;4195253;28;20090;-71
2022/08/18 04:11:51;;;;;;;6.32;2.42;;;31.20;99.90;;;;;;4199813;28;20118;-71
2022/08/18 04:13:58;;;;;;;4.40;2.47;;;31.20;99.90;;;;;;4211828;28;20051;-71
2022/08/18 04:16:06;;;;;;;8.38;2.60;;;31.20;99.90;;;;;;4211288;28;20135;-71
2022/08/18 04:18:11;;;;;;;8.18;2.67;;;31.40;99.90;;;;;;4227350;28;20039;-71
2022/08/18 04:20:17;;;;;;;6.20;2.40;;;31.50;99.90;;;;;;4211210;28;20391;-71
2022/08/18 04:22:22;;;;;;;5.72;2.40;;;31.50;99.90;;;;;;4198843;28;20055;-70
2022/08/18 04:24:27;;;;;;;4.60;2.47;;;31.60;99.90;;;;;;4195071;28;20036;-69
2022/08/18 04:26:40;;;;;;;6.07;2.22;;;31.50;99.90;;;;;;4194740;28;20063;-69
2022/08/18 04:28:44;;;;;;;4.93;2.00;;;31.60;99.90;;;;;;4206306;28;20696;-68
2022/08/18 04:30:49;;;;;;;6.78;2.40;;;31.60;99.90;;;;;;4193753;28;20093;-67
2022/08/18 04:33:00;;;;;;;5.65;2.20;;;31.70;99.90;;;;;;4194945;28;20438;-66
2022/08/18 04:35:05;;;;;;;7.72;2.40;;;31.90;99.90;;;;;;4194718;28;20036;-67
2022/08/18 04:37:16;;;;;;;5.50;2.10;;;32.00;99.90;;;;;;4194686;28;20049;-66
2022/08/18 04:39:24;;;;;;;5.75;2.30;;;32.10;99.90;;;;;;4194807;28;20379;-69
2022/08/18 04:41:29;;;;;;;3.40;2.00;;;32.20;99.90;;;;;;4196370;28;20399;-69
2022/08/18 04:43:34;;;;;;;6.20;2.40;;;32.20;99.90;;;;;;4210768;28;20044;-68
2022/08/18 04:45:43;;;;;;;5.57;2.30;;;32.30;99.90;;;;;;4210009;28;20060;-68
2022/08/18 04:47:48;;;;;;;4.95;2.05;;;32.20;99.90;;;;;;4211463;28;20048;-69
2022/08/18 04:49:53;;;;;;;4.18;2.28;;;32.30;99.90;;;;;;4202857;28;20048;-68
2022/08/18 04:54:39;;;;;;;5.78;2.30;;;32.40;99.90;;;;;;4194714;28;20048;-70
2022/08/18 04:56:44;;;;;;;6.93;2.13;;;32.60;99.90;;;;;;4211216;28;20079;-70
2022/08/18 04:59:06;;;;;;;5.10;2.00;;;32.70;99.90;;;;;;4192020;28;20079;-70
2022/08/18 05:01:11;;;;;;;6.18;2.50;;;32.80;99.90;;;;;;4210513;28;20048;-69
2022/08/18 05:03:16;;;;;;;3.47;2.00;;;32.80;99.40;;;;;;4211074;28;20059;-70
2022/08/18 05:05:23;;;;;;;5.38;2.40;;;32.90;99.90;;;;;;4210883;28;20059;-70
2022/08/18 05:07:27;;;;;;;6.10;2.13;;;32.90;99.90;;;;;;4211127;28;20130;-70
2022/08/18 05:09:32;;;;;;;5.05;2.40;;;32.90;99.80;;;;;;4210867;28;20048;-69
2022/08/18 05:11:45;;;;;;;6.55;2.40;;;33.00;98.70;;;;;;4210830;28;20123;-69
2022/08/18 05:13:51;;;;;;;6.40;2.22;;;33.00;98.50;;;;;;4211086;28;20462;-69
2022/08/18 05:15:57;;;;;;;3.63;1.92;;;33.00;97.90;;;;;;4210552;28;20491;-69
2022/08/18 05:18:18;;;;;;;5.32;2.10;;;33.10;98.50;;;;;;4210171;28;20044;-69
2022/08/18 05:20:24;;;;;;;7.22;2.53;;;33.00;98.50;;;;;;4210826;28;20040;-70
2022/08/18 05:22:29;;;;;;;22.05;3.03;;;33.10;98.30;;;;;;4209319;28;20155;-68
2022/08/18 05:24:38;;;;;;;11.90;2.25;;;33.20;98.00;;;;;;4210313;28;20406;-69
2022/08/18 05:26:43;;;;;;;4.93;2.17;;;33.30;97.70;;;;;;4210633;28;20429;-69
2022/08/18 05:28:48;;;;;;;6.35;2.30;;;33.20;97.50;;;;;;4210503;28;20854;-69
2022/08/18 05:31:18;;;;;;;5.57;2.10;;;33.10;97.00;;;;;;4174189;28;20606;-69
2022/08/18 05:33:24;;;;;;;4.70;2.40;;;33.00;97.40;;;;;;4174747;28;20037;-70
2022/08/18 05:35:33;;;;;;;4.63;1.90;;;32.90;97.60;;;;;;4158134;28;20143;-70
2022/08/18 05:38:04;;;;;;;3.83;1.80;;;32.90;97.20;;;;;;4158949;28;20980;-69
2022/08/18 05:40:09;;;;;;;4.78;1.73;;;32.80;96.90;;;;;;4173477;28;20041;-69
2022/08/18 05:42:18;;;;;;;6.47;2.22;;;33.00;97.50;;;;;;4174391;28;20041;-69
2022/08/18 05:44:26;;;;;;;5.38;1.83;;;32.90;97.30;;;;;;4158362;28;20083;-69
2022/08/18 05:46:47;;;;;;;6.18;1.92;;;32.90;97.20;;;;;;4142094;28;20472;-69
2022/08/18 05:48:52;;;;;;;3.03;1.80;;;32.80;97.20;;;;;;4157790;28;20053;-70
2022/08/18 05:51:02;;;;;;;6.78;2.22;;;33.00;97.30;;;;;;4157687;28;20037;-70
2022/08/18 05:53:12;;;;;;;4.93;1.77;;;33.20;97.40;;;;;;4157840;28;20088;-69
2022/08/18 05:58:12;;;;;;;5.30;1.80;;;33.50;97.70;;;;;;4174669;28;20566;-70
2022/08/18 06:00:19;;;;;;;4.75;1.88;;;33.60;96.30;;;;;;4174571;28;20578;-71
2022/08/18 06:02:37;;;;;;;4.35;2.00;;;33.60;95.90;;;;;;4189976;28;20079;-70
2022/08/18 06:04:47;;;;;;;5.10;2.05;;;33.40;96.40;;;;;;4210181;28;20083;-69
2022/08/18 06:06:52;;;;;;;4.50;2.00;;;33.20;96.80;;;;;;4209945;28;20082;-70
2022/08/18 06:09:28;;;;;;;4.88;1.80;;;33.20;97.30;;;;;;4209047;28;20051;-70
2022/08/18 06:11:33;;;;;;;4.47;2.20;;;33.40;96.70;;;;;;4209816;28;20056;-70
2022/08/18 06:13:41;;;;;;;5.50;2.13;;;33.60;96.30;;;;;;4210084;28;20630;-69
2022/08/18 06:16:08;;;;;;;4.38;1.67;;;33.70;95.70;;;;;;4209810;28;20066;-69
2022/08/18 06:18:30;;;;;;;5.93;1.70;;;33.60;95.70;;;;;;4209007;28;20075;-69
2022/08/18 06:21:02;;;;;;;3.72;1.90;;;33.50;95.90;;;;;;4209499;28;20632;-69
2022/08/18 06:23:35;;;;;;;2.67;1.65;;;33.50;95.90;;;;;;4210243;28;20744;-70
2022/08/18 06:26:09;;;;;;;5.65;1.98;;;33.60;95.60;;;;;;4209861;28;20394;-70
2022/08/18 06:28:14;;;;;;;6.53;1.92;;;33.60;95.10;;;;;;4203096;28;20712;-69
2022/08/18 06:30:50;;;;;;;3.70;1.80;;;33.80;95.10;;;;;;4193220;28;20041;-70
2022/08/18 06:33:34;;;;;;;5.32;1.90;;;34.00;95.10;;;;;;4193103;28;20530;-70
2022/08/18 06:35:50;;;;;;;4.90;1.88;;;33.70;93.70;;;;;;4192868;28;20045;-71
2022/08/18 06:40:37;;;;;;;108.93;12.68;;;34.00;94.40;;;;;;4193107;28;20059;-67
2022/08/18 06:42:44;;;;;;;67.22;11.40;;;34.20;94.90;;;;;;4204742;28;20113;-69
2022/08/18 06:44:51;;;;;;;24.38;3.30;;;34.10;94.40;;;;;;4208996;28;20461;-73
2022/08/18 06:47:17;;;;;;;42.15;4.45;;;34.10;93.20;;;;;;4225291;28;20144;-73
2022/08/18 06:49:49;;;;;;;11.68;2.10;;;34.10;93.90;;;;;;4208679;28;20791;-71
2022/08/18 06:51:54;;;;;;;4.30;1.58;;;34.20;93.00;;;;;;4210247;28;20056;-71
2022/08/18 06:54:25;;;;;;;6.13;1.48;;;34.30;93.60;;;;;;4209980;28;20490;-71
2022/08/18 06:56:53;;;;;;;2.58;1.30;;;34.40;93.40;;;;;;4208603;28;20063;-72
2022/08/18 06:59:30;;;;;;;4.72;1.30;;;34.40;93.30;;;;;;4210020;28;20048;-72
2022/08/18 07:01:41;;;;;;;3.90;1.35;;;34.30;93.40;;;;;;4208463;28;20490;-72
2022/08/18 07:03:53;;;;;;;6.00;1.30;;;34.10;94.00;;;;;;4209821;28;20131;-71
2022/08/18 07:06:03;;;;;;;6.78;1.88;;;34.20;93.80;;;;;;4209749;28;20052;-72
2022/08/18 07:08:17;;;;;;;52.95;6.30;;;34.10;93.60;;;;;;4213309;28;20445;-72
2022/08/18 07:10:33;;;;;;;51.65;7.25;;;34.30;93.90;;;;;;4211811;28;20521;-72
2022/08/18 07:12:37;;;;;;;10.98;2.30;;;34.30;93.70;;;;;;4211559;28;20089;-73
2022/08/18 07:14:45;;;;;;;13.35;2.60;;;34.40;93.50;;;;;;4212971;28;20517;-68
2022/08/18 07:16:50;;;;;;;10.82;3.08;;;34.30;93.60;;;;;;4212566;28;20060;-68
2022/08/18 07:19:19;;;;;;;4.15;1.60;;;34.50;93.70;;;;;;4213043;28;20783;-68
2022/08/18 07:21:32;;;;;;;3.80;1.50;;;34.60;93.50;;;;;;4212706;28;20388;-68
2022/08/18 07:23:38;;;;;;;3.58;1.38;;;34.50;93.70;;;;;;4212905;28;20059;-69
2022/08/18 07:25:44;;;;;;;7.60;1.50;;;34.60;93.70;;;;;;4212595;28;20109;-68
2022/08/18 07:27:54;;;;;;;6.22;1.58;;;34.60;93.30;;;;;;4212790;28;20044;-68
2022/08/18 07:30:11;;;;;;;2.55;1.13;;;34.60;91.40;;;;;;4212674;28;20162;-68
2022/08/18 07:32:18;;;;;;;2.78;1.30;;;34.30;90.90;;;;;;4211235;28;20052;-69
2022/08/18 07:34:27;;;;;;;3.42;1.15;;;34.20;91.30;;;;;;4212794;28;20686;-73
2022/08/18 07:36:53;;;;;;;5.55;1.20;;;34.10;91.90;;;;;;4212510;28;20044;-68
2022/08/18 07:39:11;;;;;;;19.58;3.00;;;34.30;92.00;;;;;;4212567;28;20078;-68
2022/08/18 07:41:25;;;;;;;9.15;1.98;;;34.30;92.00;;;;;;4211095;28;20036;-68
2022/08/18 07:43:52;;;;;;;4.50;1.30;;;34.20;92.10;;;;;;4212529;28;20150;-69
2022/08/18 07:46:03;;;;;;;3.13;1.50;;;34.20;91.70;;;;;;4212298;28;20495;-69
2022/08/18 07:48:29;;;;;;;;;;;34.30;91.50;;;;;;4212826;28;20135;-69
2022/08/18 07:51:22;;;;;;;2.90;1.30;;;34.50;91.30;;;;;;4212482;28;19934;-69
2022/08/18 07:53:53;;;;;;;7.55;1.30;;;34.80;91.40;;;;;;4210932;28;20039;-69
2022/08/18 07:56:05;;;;;;;2.75;1.20;;;34.80;91.70;;;;;;4210283;28;20500;-68
2022/08/18 07:58:49;;;;;;;2.47;1.20;;;34.90;91.30;;;;;;4210371;28;20098;-68
2022/08/18 08:01:17;;;;;;;4.93;1.20;;;35.00;91.50;;;;;;4211824;28;20054;-69
2022/08/18 08:03:44;;;;;;;4.95;1.23;;;34.90;91.90;;;;;;4212176;28;20048;-73
2022/08/18 08:06:15;;;;;;;61.67;7.32;;;34.90;91.80;;;;;;4212100;28;20046;-71
2022/08/18 08:09:00;;;;;;;131.00;14.85;;;34.90;91.90;;;;;;4212298;28;20468;-73
2022/08/18 08:11:36;;;;;;;75.97;8.90;;;34.90;91.10;;;;;;4212093;28;20518;-72
2022/08/18 08:14:20;;;;;;;31.05;3.80;;;34.90;91.10;;;;;;4201729;28;20052;-72
2022/08/18 08:16:43;;;;;;;12.75;2.08;;;34.90;91.40;;;;;;4211956;28;20036;-72
2022/08/18 08:19:29;;;;;;;7.40;1.42;;;34.90;90.90;;;;;;4211586;28;20135;-72
2022/08/18 08:22:03;;;;;;;71.95;8.80;;;34.80;90.50;;;;;;4211800;28;20074;-72
2022/08/18 08:24:25;;;;;;;31.20;4.60;;;34.80;90.80;;;;;;4211852;28;20386;-72
2022/08/18 08:26:51;;;;;;;11.55;1.92;;;34.80;91.20;;;;;;4211822;28;20055;-72
2022/08/18 08:29:11;;;;;;;9.93;1.60;;;34.80;90.20;;;;;;4198524;28;20052;-72
2022/08/18 08:31:38;;;;;;;14.82;2.15;;;34.80;90.60;;;;;;4205968;28;20040;-72
2022/08/18 08:33:53;;;;;;;5.43;1.50;;;34.90;90.60;;;;;;4211893;28;20121;-72
2022/08/18 08:36:14;;;;;;;3.38;1.20;;;34.80;90.70;;;;;;4211556;28;20612;-72
2022/08/18 08:38:26;;;;;;;3.03;1.08;;;34.70;90.00;;;;;;4211609;28;20040;-72
2022/08/18 08:41:02;;;;;;;3.42;1.30;;;34.60;90.40;;;;;;4210542;28;20032;-71
2022/08/18 08:43:15;;;;;;;2.17;1.00;;;34.80;90.10;;;;;;4210492;28;20051;-72
2022/08/18 08:45:33;;;;;;;4.75;1.20;;;34.80;90.10;;;;;;4211482;28;20131;-74
2022/08/18 08:48:00;;;;;;;4.97;1.40;;;34.90;90.60;;;;;;4211375;28;20056;-72
2022/08/18 08:50:14;;;;;;;3.13;1.15;;;34.80;90.80;;;;;;4210473;28;20055;-73
2022/08/18 08:52:34;;;;;;;2.83;1.27;;;34.80;91.10;;;;;;4194029;28;20056;-73
2022/08/18 08:54:53;;;;;;;3.28;1.13;;;34.70;90.20;;;;;;4211436;28;20048;-73
2022/08/18 08:56:59;;;;;;;5.88;1.27;;;34.50;90.20;;;;;;4211237;28;20051;-73
2022/08/18 08:59:07;;;;;;;3.65;1.48;;;34.50;90.20;;;;;;4211722;28;20119;-73
2022/08/18 09:01:40;;;;;;;2.72;1.00;;;34.20;90.60;;;;;;4211338;28;20372;-73
2022/08/18 09:03:56;;;;;;;5.15;1.30;;;34.20;91.00;;;;;;4210839;28;20472;-74
2022/08/18 09:06:29;;;;;;;2.65;1.13;;;34.20;91.00;;;;;;4211133;28;20044;-73
2022/08/18 09:08:54;;;;;;;6.20;1.52;;;34.30;91.20;;;;;;4209914;28;20044;-73
2022/08/18 09:11:32;;;;;;;4.47;1.20;;;34.40;91.60;;;;;;4210756;28;20411;-70
2022/08/18 09:13:59;;;;;;;2.83;1.25;;;34.50;91.40;;;;;;4194590;28;20076;-70
2022/08/18 09:16:34;;;;;;;7.22;1.52;;;34.60;91.60;;;;;;4194200;28;20041;-70
2022/08/18 09:19:12;;;;;;;4.20;1.73;;;34.70;91.30;;;;;;4192900;28;20048;-70
2022/08/18 09:21:40;;;;;;;4.25;1.27;;;34.70;90.90;;;;;;4194024;28;20055;-70
2022/08/18 09:23:50;;;;;;;18.10;3.60;;;34.60;90.40;;;;;;4190857;28;20091;-70
2022/08/18 09:25:57;;;;;;;9.52;3.05;;;34.60;91.40;;;;;;4201608;28;20095;-70
2022/08/18 09:28:17;;;;;;;11.15;3.30;;;34.60;91.30;;;;;;4193333;28;20079;-70
2022/08/18 09:30:39;;;;;;;9.23;3.63;;;34.70;91.30;;;;;;4199699;28;20380;-70
2022/08/18 09:33:24;;;;;;;9.70;3.10;;;34.70;92.00;;;;;;4194012;28;20531;-70
2022/08/18 09:35:52;;;;;;;8.25;2.35;;;34.60;92.20;;;;;;4193948;28;20068;-70
2022/08/18 09:43:39;;;;;;;5.45;1.80;;;34.30;92.80;;;;;;4192614;28;20056;-71
2022/08/18 09:46:03;;;;;;;6.32;2.10;;;34.40;92.40;;;;;;4192393;28;20072;-73
2022/08/18 09:48:23;;;;;;;4.88;1.60;;;34.40;92.10;;;;;;4208332;28;20047;-72
2022/08/18 09:50:37;;;;;;;6.90;1.80;;;34.40;92.40;;;;;;4190516;28;20124;-72
2022/08/18 09:52:46;;;;;;;8.60;2.10;;;34.30;92.60;;;;;;4192202;28;20102;-71
2022/08/18 09:55:06;;;;;;;4.25;1.85;;;34.20;92.90;;;;;;4192560;28;20127;-73
2022/08/18 09:57:30;;;;;;;4.72;2.05;;;34.10;92.90;;;;;;4194085;28;20053;-72
2022/08/18 09:59:54;;;;;;;4.65;1.80;;;34.00;92.90;;;;;;4193318;28;20044;-75
2022/08/18 10:01:59;;;;;;;3.67;2.05;;;34.00;93.30;;;;;;4195500;28;20098;-72
2022/08/18 10:04:33;;;;;;;4.38;1.88;;;34.00;93.50;;;;;;4207138;28;20044;-72
2022/08/18 10:06:38;;;;;;;6.03;1.85;;;34.00;93.60;;;;;;4192861;28;20052;-72
2022/08/18 10:09:20;;;;;;;5.22;1.90;;;34.00;93.60;;;;;;4199196;28;20040;-71
2022/08/18 10:11:52;;;;;;;6.00;1.90;;;33.90;93.30;;;;;;4206662;28;20047;-71
2022/08/18 10:14:22;;;;;;;4.30;1.85;;;33.80;93.50;;;;;;4207137;28;20048;-71
2022/08/18 10:16:46;;;;;;;8.05;2.45;;;33.80;93.40;;;;;;4207038;28;20399;-72
2022/08/18 10:19:49;;;;;;;3.17;1.65;;;33.60;93.60;;;;;;4208649;28;20032;-71
2022/08/18 10:22:01;;;;;;;5.55;1.85;;;33.60;94.10;;;;;;4209565;28;20052;-73
2022/08/18 10:24:17;;;;;;;3.35;1.98;;;33.60;94.40;;;;;;4208938;28;20513;-72
2022/08/18 10:27:01;;;;;;;5.50;1.90;;;33.50;94.30;;;;;;4205723;28;20048;-74
2022/08/18 10:29:37;;;;;;;7.20;2.00;;;33.40;94.50;;;;;;4205480;28;20040;-73
2022/08/18 10:32:14;;;;;;;6.30;2.42;;;33.40;94.40;;;;;;4207559;28;20318;-71
2022/08/18 10:34:44;;;;;;;6.00;2.97;;;33.40;94.50;;;;;;4208742;28;20042;-72
2022/08/18 10:36:59;;;;;;;7.43;2.80;;;33.30;95.00;;;;;;4208446;28;20044;-70
2022/08/18 10:39:15;;;;;;;10.50;2.83;;;33.20;95.30;;;;;;4206180;28;20044;-70
2022/08/18 10:41:22;;;;;;;10.23;3.15;;;33.10;95.70;;;;;;4208244;28;20040;-70
2022/08/18 10:43:43;;;;;;;7.00;2.15;;;33.10;95.90;;;;;;4211226;28;20037;-72
2022/08/18 10:46:15;;;;;;;8.02;2.70;;;33.10;95.80;;;;;;4210682;28;20048;-71
2022/08/18 10:48:46;;;;;;;5.95;2.85;;;33.10;95.90;;;;;;4193317;28;20614;-72
2022/08/18 10:51:19;;;;;;;6.05;2.53;;;33.10;95.70;;;;;;4175747;28;20084;-71
2022/08/18 10:53:54;;;;;;;5.68;2.55;;;33.10;95.30;;;;;;4190674;28;20048;-71
2022/08/18 10:56:23;;;;;;;5.35;2.40;;;32.90;95.50;;;;;;4191983;28;20533;-72
2022/08/18 10:58:51;;;;;;;8.70;2.75;;;32.90;95.10;;;;;;4176170;28;20040;-72
2022/08/18 11:01:20;;;;;;;6.25;2.60;;;32.90;95.10;;;;;;4191309;28;20044;-73
2022/08/18 11:03:57;;;;;;;6.00;2.40;;;32.90;94.60;;;;;;4193815;28;20075;-72
2022/08/18 11:06:18;;;;;;;18.33;2.60;;;32.80;95.00;;;;;;4191109;28;20039;-72
2022/08/18 11:08:24;;;;;;;7.55;2.20;;;32.70;95.40;;;;;;4177422;28;20051;-72
2022/08/18 11:10:47;;;;;;;8.27;2.47;;;32.70;95.50;;;;;;4193354;28;20125;-72
2022/08/18 11:13:30;;;;;;;12.05;2.97;;;32.70;95.30;;;;;;4176755;28;20434;-73
2022/08/18 11:15:57;;;;;;;7.90;2.85;;;32.60;95.50;;;;;;4173229;28;20100;-72
2022/08/18 11:18:27;;;;;;;10.13;3.60;;;32.60;95.40;;;;;;4175279;28;20045;-72
2022/08/18 11:20:34;;;;;;;7.03;2.80;;;32.60;95.40;;;;;;4177011;28;20045;-72
2022/08/18 11:22:59;;;;;;;6.65;2.60;;;32.60;95.20;;;;;;4177095;28;20107;-71
2022/08/18 11:25:25;;;;;;;;;;;32.60;95.30;;;;;;4160442;28;20041;-72
2022/08/18 11:27:36;;;;;;;8.98;3.00;;;32.60;95.30;;;;;;4208070;28;20074;-72
2022/08/18 11:29:43;;;;;;;8.45;3.70;;;32.60;95.70;;;;;;4208395;28;20378;-72
2022/08/18 11:31:50;;;;;;;8.60;4.72;;;32.60;95.50;;;;;;4170897;28;20064;-71
2022/08/18 11:33:57;;;;;;;11.82;4.38;;;32.50;95.30;;;;;;4206390;28;20048;-71
2022/08/18 11:36:02;;;;;;;10.45;5.32;;;32.50;95.30;;;;;;4208869;28;20487;-72
2022/08/18 11:38:12;;;;;;;10.75;4.82;;;32.50;95.30;;;;;;4205872;28;20093;-72
2022/08/18 11:40:45;;;;;;;13.63;5.10;;;32.50;95.50;;;;;;4205540;28;20044;-73
2022/08/18 11:43:31;;;;;;;10.45;4.25;;;32.50;95.80;;;;;;4206994;28;20040;-74
2022/08/18 11:45:51;;;;;;;12.13;4.20;;;32.50;95.70;;;;;;4207314;28;20101;-71
2022/08/18 11:48:35;;;;;;;11.60;4.32;;;32.40;95.70;;;;;;4204275;28;20109;-73
2022/08/18 11:51:10;;;;;;;8.82;3.80;;;32.30;95.90;;;;;;4198225;28;20062;-73
2022/08/18 11:53:22;;;;;;;6.63;3.47;;;32.30;95.90;;;;;;4188693;28;20052;-74
2022/08/18 11:55:33;;;;;;;9.93;3.20;;;32.30;96.10;;;;;;4191308;28;20733;-72
2022/08/18 11:57:53;;;;;;;7.65;3.40;;;32.20;96.00;;;;;;4190198;28;20546;-72
2022/08/18 12:00:35;;;;;;;10.70;3.90;;;32.30;96.10;;;;;;4173259;28;20061;-74